sensor_id;sensor_type;location;lat;lon;timestamp;temperature;humidity
780;DHT22;373;49.342;8.146;2022-12-13T00:00:26;-0.20;96.80
780;DHT22;373;49.342;8.146;2022-12-13T00:02:53;-0.10;96.60
780;DHT22;373;49.342;8.146;2022-12-13T00:05:21;-0.10;96.60
780;DHT22;373;49.342;8.146;2022-12-13T00:07:48;-0.20;96.50
780;DHT22;373;49.342;8.146;2022-12-13T00:10:15;-0.30;96.50
780;DHT22;373;49.342;8.146;2022-12-13T00:12:42;-0.20;96.80
780;DHT22;373;49.342;8.146;2022-12-13T00:15:10;-0.40;96.80
780;DHT22;373;49.342;8.146;2022-12-13T00:17:39;-0.60;97.80
780;DHT22;373;49.342;8.146;2022-12-13T00:20:06;-0.50;97.40
780;DHT22;373;49.342;8.146;2022-12-13T00:22:33;-0.30;97.50
780;DHT22;373;49.342;8.146;2022-12-13T00:25:00;-0.20;96.90
780;DHT22;373;49.342;8.146;2022-12-13T00:27:27;-0.30;96.50
780;DHT22;373;49.342;8.146;2022-12-13T00:29:55;-0.30;96.70
780;DHT22;373;49.342;8.146;2022-12-13T00:32:22;-0.20;96.80
780;DHT22;373;49.342;8.146;2022-12-13T00:34:50;-0.20;96.90
780;DHT22;373;49.342;8.146;2022-12-13T00:37:17;-0.50;96.70
780;DHT22;373;49.342;8.146;2022-12-13T00:39:44;-0.50;97.00
780;DHT22;373;49.342;8.146;2022-12-13T00:42:11;-0.60;97.60
780;DHT22;373;49.342;8.146;2022-12-13T00:44:38;-0.70;97.80
780;DHT22;373;49.342;8.146;2022-12-13T00:47:05;-0.70;97.90
780;DHT22;373;49.342;8.146;2022-12-13T00:49:32;-0.60;97.50
780;DHT22;373;49.342;8.146;2022-12-13T00:52:01;-0.50;97.50
780;DHT22;373;49.342;8.146;2022-12-13T00:54:28;-1.00;98.90
780;DHT22;373;49.342;8.146;2022-12-13T00:56:55;-0.80;98.90
780;DHT22;373;49.342;8.146;2022-12-13T00:59:22;-0.60;98.10
780;DHT22;373;49.342;8.146;2022-12-13T01:01:49;-0.60;98.70
780;DHT22;373;49.342;8.146;2022-12-13T01:04:18;-0.40;97.80
780;DHT22;373;49.342;8.146;2022-12-13T01:06:45;-0.50;97.50
780;DHT22;373;49.342;8.146;2022-12-13T01:09:22;-0.30;97.10
780;DHT22;373;49.342;8.146;2022-12-13T01:11:55;-0.20;97.40
780;DHT22;373;49.342;8.146;2022-12-13T01:14:23;-0.40;96.40
780;DHT22;373;49.342;8.146;2022-12-13T01:16:50;-0.90;97.60
780;DHT22;373;49.342;8.146;2022-12-13T01:19:20;-0.70;98.10
780;DHT22;373;49.342;8.146;2022-12-13T01:21:48;-0.80;97.20
780;DHT22;373;49.342;8.146;2022-12-13T01:24:16;-0.60;96.90
780;DHT22;373;49.342;8.146;2022-12-13T01:26:45;-0.70;96.60
780;DHT22;373;49.342;8.146;2022-12-13T01:29:13;-0.70;97.30
780;DHT22;373;49.342;8.146;2022-12-13T01:31:40;-0.70;97.00
780;DHT22;373;49.342;8.146;2022-12-13T01:34:07;-0.50;96.70
780;DHT22;373;49.342;8.146;2022-12-13T01:36:36;-0.30;96.20
780;DHT22;373;49.342;8.146;2022-12-13T01:39:03;-0.40;95.90
780;DHT22;373;49.342;8.146;2022-12-13T01:41:32;-0.30;95.60
780;DHT22;373;49.342;8.146;2022-12-13T01:44:00;-0.40;95.70
780;DHT22;373;49.342;8.146;2022-12-13T01:46:28;-0.50;95.50
780;DHT22;373;49.342;8.146;2022-12-13T01:49:00;-0.50;95.70
780;DHT22;373;49.342;8.146;2022-12-13T01:51:35;-0.60;95.70
780;DHT22;373;49.342;8.146;2022-12-13T01:54:06;-0.70;96.10
780;DHT22;373;49.342;8.146;2022-12-13T01:56:39;-0.90;96.10
780;DHT22;373;49.342;8.146;2022-12-13T01:59:08;-1.40;97.70
780;DHT22;373;49.342;8.146;2022-12-13T02:01:36;-1.50;99.60
780;DHT22;373;49.342;8.146;2022-12-13T02:04:04;-1.50;99.90
780;DHT22;373;49.342;8.146;2022-12-13T02:06:34;-1.20;99.60
780;DHT22;373;49.342;8.146;2022-12-13T02:09:03;-1.10;98.70
780;DHT22;373;49.342;8.146;2022-12-13T02:11:31;-0.90;97.70
780;DHT22;373;49.342;8.146;2022-12-13T02:14:01;-1.20;97.00
780;DHT22;373;49.342;8.146;2022-12-13T02:16:41;-1.60;99.70
780;DHT22;373;49.342;8.146;2022-12-13T02:19:44;-1.40;99.20
780;DHT22;373;49.342;8.146;2022-12-13T02:22:27;-1.20;98.30
780;DHT22;373;49.342;8.146;2022-12-13T02:25:14;-1.50;98.00
780;DHT22;373;49.342;8.146;2022-12-13T02:28:04;-1.40;99.10
780;DHT22;373;49.342;8.146;2022-12-13T02:30:36;-1.30;98.50
780;DHT22;373;49.342;8.146;2022-12-13T02:33:28;-1.20;97.90
780;DHT22;373;49.342;8.146;2022-12-13T02:36:05;-1.00;97.80
780;DHT22;373;49.342;8.146;2022-12-13T02:38:38;-0.70;97.50
780;DHT22;373;49.342;8.146;2022-12-13T02:41:14;-0.80;96.10
780;DHT22;373;49.342;8.146;2022-12-13T02:43:47;-0.80;96.80
780;DHT22;373;49.342;8.146;2022-12-13T02:46:19;-0.60;96.00
780;DHT22;373;49.342;8.146;2022-12-13T02:48:49;-0.70;95.80
780;DHT22;373;49.342;8.146;2022-12-13T02:51:17;-1.10;96.10
780;DHT22;373;49.342;8.146;2022-12-13T02:53:45;-0.90;96.60
780;DHT22;373;49.342;8.146;2022-12-13T02:56:13;-0.80;96.20
780;DHT22;373;49.342;8.146;2022-12-13T02:58:42;-1.00;95.80
780;DHT22;373;49.342;8.146;2022-12-13T03:04:21;-0.80;96.10
780;DHT22;373;49.342;8.146;2022-12-13T03:07:00;-1.30;95.10
780;DHT22;373;49.342;8.146;2022-12-13T03:09:47;-1.60;96.10
780;DHT22;373;49.342;8.146;2022-12-13T03:12:23;-1.90;97.50
780;DHT22;373;49.342;8.146;2022-12-13T03:15:16;-1.70;98.60
780;DHT22;373;49.342;8.146;2022-12-13T03:17:51;-1.50;98.10
780;DHT22;373;49.342;8.146;2022-12-13T03:20:23;-1.40;97.50
780;DHT22;373;49.342;8.146;2022-12-13T03:22:51;-1.20;97.70
780;DHT22;373;49.342;8.146;2022-12-13T03:25:18;-1.30;97.30
780;DHT22;373;49.342;8.146;2022-12-13T03:27:46;-1.40;97.70
780;DHT22;373;49.342;8.146;2022-12-13T03:30:13;-1.20;97.10
780;DHT22;373;49.342;8.146;2022-12-13T03:32:40;-1.00;96.80
780;DHT22;373;49.342;8.146;2022-12-13T03:35:10;-1.20;96.40
780;DHT22;373;49.342;8.146;2022-12-13T03:37:37;-1.50;97.10
780;DHT22;373;49.342;8.146;2022-12-13T03:40:05;-1.40;97.40
780;DHT22;373;49.342;8.146;2022-12-13T03:42:33;-1.40;97.40
780;DHT22;373;49.342;8.146;2022-12-13T03:45:00;-1.30;97.20
780;DHT22;373;49.342;8.146;2022-12-13T03:47:27;-1.20;97.10
780;DHT22;373;49.342;8.146;2022-12-13T03:49:54;-1.00;96.70
780;DHT22;373;49.342;8.146;2022-12-13T03:52:23;-1.00;96.60
780;DHT22;373;49.342;8.146;2022-12-13T03:54:50;-1.10;95.90
780;DHT22;373;49.342;8.146;2022-12-13T03:57:17;-1.20;97.00
780;DHT22;373;49.342;8.146;2022-12-13T03:59:44;-1.10;96.30
780;DHT22;373;49.342;8.146;2022-12-13T04:02:11;-1.50;97.00
780;DHT22;373;49.342;8.146;2022-12-13T04:04:38;-1.60;96.70
780;DHT22;373;49.342;8.146;2022-12-13T04:07:05;-1.50;96.80
780;DHT22;373;49.342;8.146;2022-12-13T04:09:34;-1.50;97.30
780;DHT22;373;49.342;8.146;2022-12-13T04:12:01;-1.80;97.10
780;DHT22;373;49.342;8.146;2022-12-13T04:14:45;-1.70;97.70
780;DHT22;373;49.342;8.146;2022-12-13T04:17:12;-1.40;97.60
780;DHT22;373;49.342;8.146;2022-12-13T04:19:39;-1.40;97.10
780;DHT22;373;49.342;8.146;2022-12-13T04:22:06;-1.30;96.90
780;DHT22;373;49.342;8.146;2022-12-13T04:24:35;-1.20;96.60
780;DHT22;373;49.342;8.146;2022-12-13T04:27:03;-1.00;96.40
780;DHT22;373;49.342;8.146;2022-12-13T04:29:30;-1.00;95.70
780;DHT22;373;49.342;8.146;2022-12-13T04:31:57;-1.00;95.70
780;DHT22;373;49.342;8.146;2022-12-13T04:34:24;-1.10;95.00
780;DHT22;373;49.342;8.146;2022-12-13T04:36:51;-1.20;95.70
780;DHT22;373;49.342;8.146;2022-12-13T04:39:18;-1.40;95.80
780;DHT22;373;49.342;8.146;2022-12-13T04:41:46;-1.40;96.20
780;DHT22;373;49.342;8.146;2022-12-13T04:44:13;-1.50;96.80
780;DHT22;373;49.342;8.146;2022-12-13T04:46:41;-1.40;96.50
780;DHT22;373;49.342;8.146;2022-12-13T04:49:08;-1.30;96.30
780;DHT22;373;49.342;8.146;2022-12-13T04:51:35;-1.30;96.30
780;DHT22;373;49.342;8.146;2022-12-13T04:54:02;-1.50;96.30
780;DHT22;373;49.342;8.146;2022-12-13T04:56:29;-1.50;96.40
780;DHT22;373;49.342;8.146;2022-12-13T04:58:58;-1.50;96.70
780;DHT22;373;49.342;8.146;2022-12-13T05:01:25;-1.60;97.00
780;DHT22;373;49.342;8.146;2022-12-13T05:03:52;-1.50;96.80
780;DHT22;373;49.342;8.146;2022-12-13T05:06:19;-1.40;97.20
780;DHT22;373;49.342;8.146;2022-12-13T05:08:47;-1.30;97.10
780;DHT22;373;49.342;8.146;2022-12-13T05:11:14;-1.50;96.00
780;DHT22;373;49.342;8.146;2022-12-13T05:13:41;-1.80;97.30
780;DHT22;373;49.342;8.146;2022-12-13T05:16:09;-1.80;97.80
780;DHT22;373;49.342;8.146;2022-12-13T05:18:37;-1.80;97.30
780;DHT22;373;49.342;8.146;2022-12-13T05:21:07;-1.90;97.70
780;DHT22;373;49.342;8.146;2022-12-13T05:23:36;-2.00;98.50
780;DHT22;373;49.342;8.146;2022-12-13T05:26:03;-1.90;98.40
780;DHT22;373;49.342;8.146;2022-12-13T05:28:31;-1.80;97.90
780;DHT22;373;49.342;8.146;2022-12-13T05:31:05;-1.90;98.10
780;DHT22;373;49.342;8.146;2022-12-13T05:33:34;-2.10;98.20
780;DHT22;373;49.342;8.146;2022-12-13T05:36:01;-2.20;99.10
780;DHT22;373;49.342;8.146;2022-12-13T05:38:29;-2.20;98.90
780;DHT22;373;49.342;8.146;2022-12-13T05:40:57;-2.40;99.20
780;DHT22;373;49.342;8.146;2022-12-13T05:43:24;-2.60;99.90
780;DHT22;373;49.342;8.146;2022-12-13T05:45:51;-2.30;99.90
780;DHT22;373;49.342;8.146;2022-12-13T05:48:18;-2.10;99.50
780;DHT22;373;49.342;8.146;2022-12-13T05:50:47;-1.90;99.40
780;DHT22;373;49.342;8.146;2022-12-13T05:53:14;-2.00;98.20
780;DHT22;373;49.342;8.146;2022-12-13T05:55:42;-2.00;98.80
780;DHT22;373;49.342;8.146;2022-12-13T05:58:09;-2.10;98.50
780;DHT22;373;49.342;8.146;2022-12-13T06:00:39;-2.30;98.50
780;DHT22;373;49.342;8.146;2022-12-13T06:03:07;-2.20;99.30
780;DHT22;373;49.342;8.146;2022-12-13T06:05:34;-1.90;98.80
780;DHT22;373;49.342;8.146;2022-12-13T06:08:02;-2.00;97.20
780;DHT22;373;49.342;8.146;2022-12-13T06:10:29;-2.10;97.60
780;DHT22;373;49.342;8.146;2022-12-13T06:12:56;-1.90;97.50
780;DHT22;373;49.342;8.146;2022-12-13T06:15:24;-2.00;96.90
780;DHT22;373;49.342;8.146;2022-12-13T06:17:51;-2.20;97.50
780;DHT22;373;49.342;8.146;2022-12-13T06:20:18;-2.20;98.20
780;DHT22;373;49.342;8.146;2022-12-13T06:22:46;-2.30;97.40
780;DHT22;373;49.342;8.146;2022-12-13T06:25:14;-2.40;99.20
780;DHT22;373;49.342;8.146;2022-12-13T06:27:41;-2.20;99.50
780;DHT22;373;49.342;8.146;2022-12-13T06:30:09;-2.00;97.70
780;DHT22;373;49.342;8.146;2022-12-13T06:32:36;-1.80;97.50
780;DHT22;373;49.342;8.146;2022-12-13T06:35:05;-1.70;96.60
780;DHT22;373;49.342;8.146;2022-12-13T06:37:32;-2.00;96.60
780;DHT22;373;49.342;8.146;2022-12-13T06:39:59;-2.20;98.00
780;DHT22;373;49.342;8.146;2022-12-13T06:42:28;-1.90;97.30
780;DHT22;373;49.342;8.146;2022-12-13T06:44:56;-1.90;96.60
780;DHT22;373;49.342;8.146;2022-12-13T06:47:23;-1.90;97.40
780;DHT22;373;49.342;8.146;2022-12-13T06:49:54;-2.00;97.30
780;DHT22;373;49.342;8.146;2022-12-13T06:52:21;-1.90;97.30
780;DHT22;373;49.342;8.146;2022-12-13T06:54:50;-1.90;97.00
780;DHT22;373;49.342;8.146;2022-12-13T06:57:17;-1.90;96.40
780;DHT22;373;49.342;8.146;2022-12-13T06:59:46;-2.10;96.70
780;DHT22;373;49.342;8.146;2022-12-13T07:02:13;-2.20;97.10
780;DHT22;373;49.342;8.146;2022-12-13T07:04:40;-2.20;97.70
780;DHT22;373;49.342;8.146;2022-12-13T07:07:07;-2.40;98.20
780;DHT22;373;49.342;8.146;2022-12-13T07:09:34;-2.30;97.50
780;DHT22;373;49.342;8.146;2022-12-13T07:12:02;-2.70;99.60
780;DHT22;373;49.342;8.146;2022-12-13T07:14:29;-2.60;99.90
780;DHT22;373;49.342;8.146;2022-12-13T07:16:58;-2.60;99.90
780;DHT22;373;49.342;8.146;2022-12-13T07:19:26;-2.80;99.90
780;DHT22;373;49.342;8.146;2022-12-13T07:21:53;-2.70;99.90
780;DHT22;373;49.342;8.146;2022-12-13T07:24:20;-2.50;99.90
780;DHT22;373;49.342;8.146;2022-12-13T07:26:47;-2.10;99.90
780;DHT22;373;49.342;8.146;2022-12-13T07:29:14;-2.00;98.40
780;DHT22;373;49.342;8.146;2022-12-13T07:31:41;-0.50;99.90
780;DHT22;373;49.342;8.146;2022-12-13T07:34:10;0.30;99.90
780;DHT22;373;49.342;8.146;2022-12-13T07:36:37;-0.50;99.90
780;DHT22;373;49.342;8.146;2022-12-13T07:39:04;-0.50;97.40
780;DHT22;373;49.342;8.146;2022-12-13T07:41:31;0.00;96.00
780;DHT22;373;49.342;8.146;2022-12-13T07:43:59;0.00;94.20
780;DHT22;373;49.342;8.146;2022-12-13T07:46:26;-0.10;94.20
780;DHT22;373;49.342;8.146;2022-12-13T07:48:53;0.20;93.60
780;DHT22;373;49.342;8.146;2022-12-13T07:51:22;-0.10;93.50
780;DHT22;373;49.342;8.146;2022-12-13T07:53:49;-0.30;93.50
780;DHT22;373;49.342;8.146;2022-12-13T07:56:17;-0.40;93.80
780;DHT22;373;49.342;8.146;2022-12-13T07:58:44;-0.60;94.10
780;DHT22;373;49.342;8.146;2022-12-13T08:01:12;-0.70;94.20
780;DHT22;373;49.342;8.146;2022-12-13T08:03:39;-1.00;94.80
780;DHT22;373;49.342;8.146;2022-12-13T08:06:07;-1.20;95.90
780;DHT22;373;49.342;8.146;2022-12-13T08:08:36;-1.00;95.90
780;DHT22;373;49.342;8.146;2022-12-13T08:11:05;-0.80;95.70
780;DHT22;373;49.342;8.146;2022-12-13T08:13:33;-1.10;96.60
780;DHT22;373;49.342;8.146;2022-12-13T08:16:02;-0.80;96.30
780;DHT22;373;49.342;8.146;2022-12-13T08:18:31;-0.30;96.60
780;DHT22;373;49.342;8.146;2022-12-13T08:20:59;0.10;94.50
780;DHT22;373;49.342;8.146;2022-12-13T08:23:28;0.90;94.50
780;DHT22;373;49.342;8.146;2022-12-13T08:25:57;1.80;93.20
780;DHT22;373;49.342;8.146;2022-12-13T08:28:25;2.10;91.70
780;DHT22;373;49.342;8.146;2022-12-13T08:30:52;2.80;91.20
780;DHT22;373;49.342;8.146;2022-12-13T08:33:20;3.00;89.90
780;DHT22;373;49.342;8.146;2022-12-13T08:35:47;3.00;88.20
780;DHT22;373;49.342;8.146;2022-12-13T08:38:14;3.30;88.10
780;DHT22;373;49.342;8.146;2022-12-13T08:40:41;3.70;87.00
780;DHT22;373;49.342;8.146;2022-12-13T08:43:10;4.00;86.30
780;DHT22;373;49.342;8.146;2022-12-13T08:45:37;4.50;84.70
780;DHT22;373;49.342;8.146;2022-12-13T08:48:05;4.60;82.90
780;DHT22;373;49.342;8.146;2022-12-13T08:50:32;4.40;81.80
780;DHT22;373;49.342;8.146;2022-12-13T08:52:59;3.80;81.70
780;DHT22;373;49.342;8.146;2022-12-13T08:55:26;3.80;84.30
780;DHT22;373;49.342;8.146;2022-12-13T08:57:53;4.00;84.10
780;DHT22;373;49.342;8.146;2022-12-13T09:00:22;4.10;83.20
780;DHT22;373;49.342;8.146;2022-12-13T09:02:49;4.10;83.00
780;DHT22;373;49.342;8.146;2022-12-13T09:05:16;3.30;83.20
780;DHT22;373;49.342;8.146;2022-12-13T09:07:43;2.90;85.00
780;DHT22;373;49.342;8.146;2022-12-13T09:10:10;2.90;86.90
780;DHT22;373;49.342;8.146;2022-12-13T09:12:41;3.20;87.00
780;DHT22;373;49.342;8.146;2022-12-13T09:15:09;2.70;87.40
780;DHT22;373;49.342;8.146;2022-12-13T09:17:54;2.50;87.50
780;DHT22;373;49.342;8.146;2022-12-13T09:20:55;2.40;88.10
780;DHT22;373;49.342;8.146;2022-12-13T09:27:37;2.80;87.80
780;DHT22;373;49.342;8.146;2022-12-13T09:30:12;3.00;88.10
780;DHT22;373;49.342;8.146;2022-12-13T09:32:43;2.70;87.40
780;DHT22;373;49.342;8.146;2022-12-13T09:35:15;3.00;88.00
780;DHT22;373;49.342;8.146;2022-12-13T09:37:56;3.20;87.50
780;DHT22;373;49.342;8.146;2022-12-13T09:40:26;2.70;86.20
780;DHT22;373;49.342;8.146;2022-12-13T09:42:56;3.20;87.60
780;DHT22;373;49.342;8.146;2022-12-13T09:45:24;3.40;86.60
780;DHT22;373;49.342;8.146;2022-12-13T09:48:01;3.80;85.10
780;DHT22;373;49.342;8.146;2022-12-13T09:54:57;3.90;83.00
780;DHT22;373;49.342;8.146;2022-12-13T09:57:28;4.40;81.90
780;DHT22;373;49.342;8.146;2022-12-13T09:59:56;4.10;82.10
780;DHT22;373;49.342;8.146;2022-12-13T10:02:25;5.10;79.40
780;DHT22;373;49.342;8.146;2022-12-13T10:05:13;5.40;77.10
780;DHT22;373;49.342;8.146;2022-12-13T10:07:40;4.80;78.00
780;DHT22;373;49.342;8.146;2022-12-13T10:10:10;4.90;78.20
780;DHT22;373;49.342;8.146;2022-12-13T10:12:39;5.70;77.60
780;DHT22;373;49.342;8.146;2022-12-13T10:15:10;6.40;75.00
780;DHT22;373;49.342;8.146;2022-12-13T10:17:39;5.90;73.00
780;DHT22;373;49.342;8.146;2022-12-13T10:20:18;4.70;76.30
780;DHT22;373;49.342;8.146;2022-12-13T10:22:46;4.80;77.30
780;DHT22;373;49.342;8.146;2022-12-13T10:25:14;3.50;78.90
780;DHT22;373;49.342;8.146;2022-12-13T10:27:44;3.00;80.20
780;DHT22;373;49.342;8.146;2022-12-13T10:30:15;3.30;82.90
780;DHT22;373;49.342;8.146;2022-12-13T10:32:51;3.70;80.50
780;DHT22;373;49.342;8.146;2022-12-13T10:35:26;4.70;80.80
780;DHT22;373;49.342;8.146;2022-12-13T10:37:59;5.00;77.60
780;DHT22;373;49.342;8.146;2022-12-13T10:40:32;4.70;78.70
780;DHT22;373;49.342;8.146;2022-12-13T10:43:07;3.70;77.00
780;DHT22;373;49.342;8.146;2022-12-13T10:45:35;2.60;80.50
780;DHT22;373;49.342;8.146;2022-12-13T10:48:02;3.10;82.00
780;DHT22;373;49.342;8.146;2022-12-13T10:50:32;2.50;81.50
780;DHT22;373;49.342;8.146;2022-12-13T10:53:00;3.00;82.30
780;DHT22;373;49.342;8.146;2022-12-13T10:55:29;3.60;81.40
780;DHT22;373;49.342;8.146;2022-12-13T10:57:59;4.50;80.40
780;DHT22;373;49.342;8.146;2022-12-13T11:00:38;4.50;76.70
780;DHT22;373;49.342;8.146;2022-12-13T11:03:08;4.40;76.70
780;DHT22;373;49.342;8.146;2022-12-13T11:05:37;4.60;76.50
780;DHT22;373;49.342;8.146;2022-12-13T11:08:13;4.30;77.00
780;DHT22;373;49.342;8.146;2022-12-13T11:10:41;4.10;76.80
780;DHT22;373;49.342;8.146;2022-12-13T11:13:23;4.00;76.60
780;DHT22;373;49.342;8.146;2022-12-13T11:15:54;3.60;75.70
780;DHT22;373;49.342;8.146;2022-12-13T11:18:23;3.90;77.40
780;DHT22;373;49.342;8.146;2022-12-13T11:20:56;4.30;77.60
780;DHT22;373;49.342;8.146;2022-12-13T11:23:32;4.70;75.50
780;DHT22;373;49.342;8.146;2022-12-13T11:26:05;4.50;76.10
780;DHT22;373;49.342;8.146;2022-12-13T11:28:50;4.40;75.60
780;DHT22;373;49.342;8.146;2022-12-13T11:31:24;4.20;75.90
780;DHT22;373;49.342;8.146;2022-12-13T11:33:57;4.90;74.70
780;DHT22;373;49.342;8.146;2022-12-13T11:36:34;5.20;73.50
780;DHT22;373;49.342;8.146;2022-12-13T11:39:19;4.60;73.20
780;DHT22;373;49.342;8.146;2022-12-13T11:41:51;4.70;73.40
780;DHT22;373;49.342;8.146;2022-12-13T11:44:26;3.00;74.40
780;DHT22;373;49.342;8.146;2022-12-13T11:46:58;2.10;79.50
780;DHT22;373;49.342;8.146;2022-12-13T11:49:35;2.10;80.60
780;DHT22;373;49.342;8.146;2022-12-13T11:52:12;1.60;80.30
780;DHT22;373;49.342;8.146;2022-12-13T11:54:47;1.50;82.80
780;DHT22;373;49.342;8.146;2022-12-13T11:57:30;2.20;83.50
780;DHT22;373;49.342;8.146;2022-12-13T12:00:04;2.80;81.50
780;DHT22;373;49.342;8.146;2022-12-13T12:02:44;3.10;81.70
780;DHT22;373;49.342;8.146;2022-12-13T12:05:23;3.50;79.50
780;DHT22;373;49.342;8.146;2022-12-13T12:07:58;3.40;79.40
780;DHT22;373;49.342;8.146;2022-12-13T12:10:31;4.20;78.10
780;DHT22;373;49.342;8.146;2022-12-13T12:13:04;4.70;75.90
780;DHT22;373;49.342;8.146;2022-12-13T12:15:37;4.20;76.70
780;DHT22;373;49.342;8.146;2022-12-13T12:18:12;4.60;75.70
780;DHT22;373;49.342;8.146;2022-12-13T12:20:50;4.70;74.30
780;DHT22;373;49.342;8.146;2022-12-13T12:23:33;4.00;73.80
780;DHT22;373;49.342;8.146;2022-12-13T12:26:09;2.70;76.50
780;DHT22;373;49.342;8.146;2022-12-13T12:29:03;1.50;78.70
780;DHT22;373;49.342;8.146;2022-12-13T12:31:44;1.50;82.10
780;DHT22;373;49.342;8.146;2022-12-13T12:34:29;1.60;81.00
780;DHT22;373;49.342;8.146;2022-12-13T12:37:05;1.80;81.10
780;DHT22;373;49.342;8.146;2022-12-13T12:39:48;1.20;81.90
780;DHT22;373;49.342;8.146;2022-12-13T12:42:43;1.40;84.10
780;DHT22;373;49.342;8.146;2022-12-13T12:45:24;1.60;83.60
780;DHT22;373;49.342;8.146;2022-12-13T12:48:04;1.90;82.70
780;DHT22;373;49.342;8.146;2022-12-13T12:50:42;1.90;81.70
780;DHT22;373;49.342;8.146;2022-12-13T12:53:28;1.90;82.40
780;DHT22;373;49.342;8.146;2022-12-13T12:56:06;1.80;82.90
780;DHT22;373;49.342;8.146;2022-12-13T12:58:39;1.70;82.90
780;DHT22;373;49.342;8.146;2022-12-13T13:01:18;1.30;83.50
780;DHT22;373;49.342;8.146;2022-12-13T13:03:51;1.00;85.00
780;DHT22;373;49.342;8.146;2022-12-13T13:06:22;0.60;86.10
780;DHT22;373;49.342;8.146;2022-12-13T13:08:55;0.40;88.00
780;DHT22;373;49.342;8.146;2022-12-13T13:11:28;0.40;88.60
780;DHT22;373;49.342;8.146;2022-12-13T13:14:02;0.60;88.80
780;DHT22;373;49.342;8.146;2022-12-13T13:16:35;0.60;88.70
780;DHT22;373;49.342;8.146;2022-12-13T13:19:03;0.80;89.60
780;DHT22;373;49.342;8.146;2022-12-13T13:21:44;0.90;89.60
780;DHT22;373;49.342;8.146;2022-12-13T13:24:20;1.00;87.80
780;DHT22;373;49.342;8.146;2022-12-13T13:26:51;1.30;88.60
780;DHT22;373;49.342;8.146;2022-12-13T13:29:32;1.20;88.50
780;DHT22;373;49.342;8.146;2022-12-13T13:32:02;1.00;87.90
780;DHT22;373;49.342;8.146;2022-12-13T13:34:33;0.90;88.90
780;DHT22;373;49.342;8.146;2022-12-13T13:37:02;0.90;89.10
780;DHT22;373;49.342;8.146;2022-12-13T13:39:56;0.60;89.40
780;DHT22;373;49.342;8.146;2022-12-13T13:42:27;0.60;90.20
780;DHT22;373;49.342;8.146;2022-12-13T13:48:17;0.50;90.60
780;DHT22;373;49.342;8.146;2022-12-13T13:51:19;0.40;91.00
780;DHT22;373;49.342;8.146;2022-12-13T13:57:18;0.20;92.00
780;DHT22;373;49.342;8.146;2022-12-13T14:00:09;0.40;92.60
780;DHT22;373;49.342;8.146;2022-12-13T14:06:40;0.50;92.20
780;DHT22;373;49.342;8.146;2022-12-13T14:09:46;0.60;92.90
780;DHT22;373;49.342;8.146;2022-12-13T14:15:54;0.20;93.10
780;DHT22;373;49.342;8.146;2022-12-13T14:21:51;0.00;94.60
780;DHT22;373;49.342;8.146;2022-12-13T14:24:26;0.10;95.20
780;DHT22;373;49.342;8.146;2022-12-13T14:27:04;0.30;94.80
780;DHT22;373;49.342;8.146;2022-12-13T14:29:37;0.30;94.80
780;DHT22;373;49.342;8.146;2022-12-13T14:32:15;0.50;95.20
780;DHT22;373;49.342;8.146;2022-12-13T14:34:44;0.50;94.40
780;DHT22;373;49.342;8.146;2022-12-13T14:37:21;0.40;94.60
780;DHT22;373;49.342;8.146;2022-12-13T14:39:52;0.20;95.10
780;DHT22;373;49.342;8.146;2022-12-13T14:42:24;0.20;95.40
780;DHT22;373;49.342;8.146;2022-12-13T14:44:53;0.40;95.20
780;DHT22;373;49.342;8.146;2022-12-13T14:47:22;0.50;95.00
780;DHT22;373;49.342;8.146;2022-12-13T14:49:52;0.40;94.30
780;DHT22;373;49.342;8.146;2022-12-13T14:52:23;0.00;94.50
780;DHT22;373;49.342;8.146;2022-12-13T14:54:53;-0.20;95.50
780;DHT22;373;49.342;8.146;2022-12-13T14:57:22;-0.30;95.70
780;DHT22;373;49.342;8.146;2022-12-13T14:59:52;-0.10;96.10
780;DHT22;373;49.342;8.146;2022-12-13T15:02:23;0.00;96.70
780;DHT22;373;49.342;8.146;2022-12-13T15:04:55;-0.60;96.70
780;DHT22;373;49.342;8.146;2022-12-13T15:07:25;-0.60;97.70
780;DHT22;373;49.342;8.146;2022-12-13T15:09:55;-0.80;97.20
780;DHT22;373;49.342;8.146;2022-12-13T15:12:23;-0.60;97.80
780;DHT22;373;49.342;8.146;2022-12-13T15:14:56;-0.70;96.90
780;DHT22;373;49.342;8.146;2022-12-13T15:17:28;-0.70;97.00
780;DHT22;373;49.342;8.146;2022-12-13T15:20:21;-0.40;97.00
780;DHT22;373;49.342;8.146;2022-12-13T15:22:57;-0.60;96.00
780;DHT22;373;49.342;8.146;2022-12-13T15:25:32;-0.60;96.20
780;DHT22;373;49.342;8.146;2022-12-13T15:28:00;-0.60;96.10
780;DHT22;373;49.342;8.146;2022-12-13T15:30:29;-0.60;96.20
780;DHT22;373;49.342;8.146;2022-12-13T15:33:17;-0.60;96.30
780;DHT22;373;49.342;8.146;2022-12-13T15:35:45;-0.40;96.10
780;DHT22;373;49.342;8.146;2022-12-13T15:38:17;-0.30;95.60
780;DHT22;373;49.342;8.146;2022-12-13T15:40:46;-0.30;95.40
780;DHT22;373;49.342;8.146;2022-12-13T15:43:14;-0.30;95.20
780;DHT22;373;49.342;8.146;2022-12-13T15:45:44;-0.30;95.40
780;DHT22;373;49.342;8.146;2022-12-13T15:48:23;-0.30;95.70
780;DHT22;373;49.342;8.146;2022-12-13T15:51:16;-0.20;95.50
780;DHT22;373;49.342;8.146;2022-12-13T15:54:02;-0.30;95.70
780;DHT22;373;49.342;8.146;2022-12-13T15:56:31;-0.30;95.70
780;DHT22;373;49.342;8.146;2022-12-13T15:59:00;-0.20;95.30
780;DHT22;373;49.342;8.146;2022-12-13T16:01:31;-0.40;95.40
780;DHT22;373;49.342;8.146;2022-12-13T16:04:01;-0.40;95.50
780;DHT22;373;49.342;8.146;2022-12-13T16:06:31;-0.30;95.90
780;DHT22;373;49.342;8.146;2022-12-13T16:09:00;-0.40;95.40
780;DHT22;373;49.342;8.146;2022-12-13T16:11:30;-0.30;95.70
780;DHT22;373;49.342;8.146;2022-12-13T16:14:36;-0.20;95.30
780;DHT22;373;49.342;8.146;2022-12-13T16:17:16;-0.30;96.70
780;DHT22;373;49.342;8.146;2022-12-13T16:19:47;-0.20;96.30
780;DHT22;373;49.342;8.146;2022-12-13T16:22:14;-0.30;96.20
780;DHT22;373;49.342;8.146;2022-12-13T16:24:42;-0.40;96.70
780;DHT22;373;49.342;8.146;2022-12-13T16:27:09;-0.30;96.30
780;DHT22;373;49.342;8.146;2022-12-13T16:29:36;-0.20;96.50
780;DHT22;373;49.342;8.146;2022-12-13T16:32:03;-0.10;95.90
780;DHT22;373;49.342;8.146;2022-12-13T16:34:30;0.00;95.80
780;DHT22;373;49.342;8.146;2022-12-13T16:36:59;0.00;95.90
780;DHT22;373;49.342;8.146;2022-12-13T16:39:26;0.10;95.60
780;DHT22;373;49.342;8.146;2022-12-13T16:41:53;0.20;95.40
780;DHT22;373;49.342;8.146;2022-12-13T16:44:24;0.20;94.90
780;DHT22;373;49.342;8.146;2022-12-13T16:46:53;0.20;94.70
780;DHT22;373;49.342;8.146;2022-12-13T16:49:23;0.40;94.70
780;DHT22;373;49.342;8.146;2022-12-13T16:51:51;0.60;94.30
780;DHT22;373;49.342;8.146;2022-12-13T16:54:20;0.50;94.10
780;DHT22;373;49.342;8.146;2022-12-13T16:56:49;0.60;94.20
780;DHT22;373;49.342;8.146;2022-12-13T16:59:17;0.60;94.00
780;DHT22;373;49.342;8.146;2022-12-13T17:01:45;0.80;93.60
780;DHT22;373;49.342;8.146;2022-12-13T17:04:13;0.60;93.40
780;DHT22;373;49.342;8.146;2022-12-13T17:06:42;0.40;93.90
780;DHT22;373;49.342;8.146;2022-12-13T17:09:09;0.40;93.80
780;DHT22;373;49.342;8.146;2022-12-13T17:11:37;0.40;94.00
780;DHT22;373;49.342;8.146;2022-12-13T17:14:04;0.30;93.80
780;DHT22;373;49.342;8.146;2022-12-13T17:16:32;0.00;94.50
780;DHT22;373;49.342;8.146;2022-12-13T17:18:59;0.00;94.70
780;DHT22;373;49.342;8.146;2022-12-13T17:21:27;0.10;95.00
780;DHT22;373;49.342;8.146;2022-12-13T17:23:54;0.30;95.10
780;DHT22;373;49.342;8.146;2022-12-13T17:26:22;0.40;94.60
780;DHT22;373;49.342;8.146;2022-12-13T17:28:51;0.40;94.00
780;DHT22;373;49.342;8.146;2022-12-13T17:31:19;0.50;93.60
780;DHT22;373;49.342;8.146;2022-12-13T17:33:46;0.60;93.70
780;DHT22;373;49.342;8.146;2022-12-13T17:36:15;0.60;93.70